Time;durP1;ratioP1;P1;durP2;ratioP2;P2;SDS_P1;SDS_P2;PMS_P1;PMS_P2;Temp;Humidity;BMP_temperature;BMP_pressure;BME280_temperature;BME280_humidity;BME280_pressure;Samples;Min_cycle;Max_cycle;Signal;HPM_P1;HPM_P2
2023/11/21 00:15:56;;;;;;;0.20;0.20;;;;;;;14.64;100.00;75398.13;6265340;22;20080;-93
2023/11/21 00:18:21;;;;;;;0.20;0.20;;;;;;;14.31;100.00;75361.38;6249067;22;20016;-93
2023/11/21 00:20:47;;;;;;;0.20;0.20;;;;;;;14.31;100.00;75361.38;6249410;22;20513;-94
2023/11/21 00:23:12;;;;;;;0.20;0.20;;;;;;;14.53;100.00;75381.59;6249101;22;20110;-94
2023/11/21 00:25:37;;;;;;;0.20;0.20;;;;;;;14.42;100.00;75371.75;6249625;22;20014;-94
2023/11/21 00:28:03;;;;;;;0.20;0.20;;;;;;;14.54;100.00;75385.56;6249318;22;20073;-95
2023/11/21 00:30:29;;;;;;;0.20;0.20;;;;;;;14.60;100.00;75393.38;6248781;22;20003;-95
2023/11/21 00:32:54;;;;;;;0.20;0.20;;;;;;;14.62;100.00;75398.53;6249735;22;20004;-95
2023/11/21 00:35:20;;;;;;;0.20;0.20;;;;;;;14.50;100.00;75378.00;6249413;22;20339;-93
2023/11/21 00:37:45;;;;;;;0.20;0.20;;;;;;;14.60;100.00;75392.78;6248841;22;20327;-94
2023/11/21 00:40:12;;;;;;;0.20;0.20;;;;;;;14.36;100.00;75359.03;6249426;22;20011;-94
2023/11/21 00:42:37;;;;;;;0.20;0.20;;;;;;;14.68;100.00;75397.38;6275738;22;20007;-94
2023/11/21 00:45:03;;;;;;;0.20;0.20;;;;;;;14.72;100.00;75404.34;6248399;22;20446;-93
2023/11/21 00:47:29;;;;;;;0.20;0.20;;;;;;;14.61;100.00;75388.41;6275894;22;20035;-94
2023/11/21 00:49:54;;;;;;;0.20;0.20;;;;;;;14.46;100.00;75379.34;6248834;22;20399;-94
2023/11/21 00:52:20;;;;;;;0.20;0.20;;;;;;;14.49;100.00;75377.41;6248821;22;20007;-94
2023/11/21 00:54:46;;;;;;;0.20;0.20;;;;;;;14.53;100.00;75384.97;6276173;22;20003;-95
2023/11/21 00:57:11;;;;;;;0.20;0.20;;;;;;;14.31;100.00;75359.19;6248994;22;20083;-94
2023/11/21 00:59:37;;;;;;;0.20;0.20;;;;;;;14.53;100.00;75384.38;6248828;22;20039;-94
2023/11/21 01:02:04;;;;;;;0.20;0.20;;;;;;;14.50;100.00;75381.38;6248898;22;20447;-94
2023/11/21 01:04:31;;;;;;;0.20;0.20;;;;;;;14.52;100.00;75378.22;6249167;22;20057;-94
2023/11/21 01:06:57;;;;;;;0.20;0.20;;;;;;;14.61;100.00;75393.97;6248888;22;20450;-96
2023/11/21 01:09:23;;;;;;;0.20;0.20;;;;;;;14.51;100.00;75382.56;6249129;22;20003;-94
2023/11/21 01:11:48;;;;;;;0.20;0.20;;;;;;;14.53;100.00;75378.81;6248717;22;20336;-94
2023/11/21 01:14:14;;;;;;;0.20;0.20;;;;;;;14.45;100.00;75369.81;6275335;22;20016;-94
2023/11/21 01:16:40;;;;;;;0.20;0.20;;;;;;;14.59;100.00;75392.16;6249289;22;20008;-94
2023/11/21 01:19:05;;;;;;;0.20;0.20;;;;;;;14.60;100.00;75395.56;6275783;22;20012;-94
2023/11/21 01:21:31;;;;;;;0.20;0.20;;;;;;;14.57;100.00;75392.53;6248715;22;20004;-94
2023/11/21 01:23:57;;;;;;;0.20;0.20;;;;;;;14.49;100.00;75380.19;6248900;22;20063;-94
2023/11/21 01:26:23;;;;;;;0.20;0.20;;;;;;;14.63;100.00;75394.16;6249342;22;20038;-94
2023/11/21 01:28:48;;;;;;;0.20;0.20;;;;;;;14.38;100.00;75364.19;6251003;22;20104;-95
2023/11/21 01:31:18;;;;;;;0.20;0.20;;;;;;;14.65;100.00;75396.56;6277588;22;19999;-96
2023/11/21 01:33:43;;;;;;;0.20;0.20;;;;;;;14.67;100.00;75401.16;6277344;22;19999;-95
2023/11/21 01:36:09;;;;;;;0.20;0.20;;;;;;;14.67;100.00;75401.75;6250845;22;20082;-95
2023/11/21 01:38:34;;;;;;;0.20;0.20;;;;;;;14.51;100.00;75381.97;6250612;22;20110;-95
2023/11/21 01:41:00;;;;;;;0.20;0.20;;;;;;;14.40;100.00;75369.38;6251036;22;20004;-96
2023/11/21 01:43:26;;;;;;;0.20;0.20;;;;;;;14.52;100.00;75383.16;6250693;22;20004;-95
2023/11/21 01:45:56;;;;;;;0.20;0.20;;;;;;;14.47;100.00;75375.00;6250578;22;20008;-95
2023/11/21 01:48:22;;;;;;;0.20;0.20;;;;;;;14.56;100.00;75385.19;6277971;22;20007;-95
2023/11/21 01:50:48;;;;;;;0.20;0.20;;;;;;;14.39;100.00;75377.13;6277136;22;20007;-95
2023/11/21 01:53:14;;;;;;;0.20;0.20;;;;;;;14.47;100.00;75371.59;6250586;22;20007;-96
2023/11/21 01:55:42;;;;;;;0.20;0.20;;;;;;;14.38;100.00;75364.19;6250602;22;20000;-94
2023/11/21 01:58:08;;;;;;;0.20;0.20;;;;;;;14.50;100.00;75381.38;6277472;22;20071;-95
2023/11/21 02:00:33;;;;;;;0.20;0.20;;;;;;;14.46;100.00;75376.56;6249999;22;20042;-95
2023/11/21 02:02:59;;;;;;;0.20;0.20;;;;;;;14.53;100.00;75384.38;6277454;22;20028;-95
2023/11/21 02:05:25;;;;;;;0.20;0.20;;;;;;;14.30;100.00;75357.41;6249115;22;20474;-95
2023/11/21 02:07:52;;;;;;;0.20;0.20;;;;;;;14.46;100.00;75375.97;6250328;22;20431;-96
2023/11/21 02:10:22;;;;;;;0.20;0.20;;;;;;;14.38;100.00;75366.97;6250453;22;19983;-96
2023/11/21 02:12:48;;;;;;;0.20;0.20;;;;;;;14.37;100.00;75365.78;6250522;22;20004;-96
2023/11/21 02:15:20;;;;;;;0.20;0.20;;;;;;;14.42;100.00;75374.53;6250486;22;20074;-95
2023/11/21 02:17:51;;;;;;;0.20;0.20;;;;;;;14.43;100.00;75372.97;6250618;22;20087;-95
2023/11/21 02:20:17;;;;;;;0.20;0.20;;;;;;;14.44;100.00;75374.19;6250168;22;20073;-95
2023/11/21 02:22:45;;;;;;;0.20;0.20;;;;;;;14.43;100.00;75378.53;6249957;22;19995;-95
2023/11/21 02:25:11;;;;;;;0.20;0.20;;;;;;;14.42;100.00;75372.38;6251630;22;20004;-94
2023/11/21 02:27:37;;;;;;;0.20;0.20;;;;;;;14.46;100.00;75376.56;6252502;22;20003;-95
2023/11/21 02:30:04;;;;;;;0.20;0.20;;;;;;;14.45;100.00;75375.38;6278972;22;20054;-95
2023/11/21 02:32:31;;;;;;;0.20;0.20;;;;;;;14.44;100.00;75368.63;6250618;22;20008;-95
2023/11/21 02:35:00;;;;;;;0.20;0.20;;;;;;;14.30;100.00;75358.00;6250311;22;20004;-95
2023/11/21 02:37:26;;;;;;;0.20;0.20;;;;;;;14.44;100.00;75374.19;6250396;22;20006;-95
2023/11/21 02:39:52;;;;;;;0.20;0.20;;;;;;;14.37;100.00;75363.00;6276667;22;20007;-95
2023/11/21 02:42:18;;;;;;;0.20;0.20;;;;;;;14.29;100.00;75356.22;6249699;22;20003;-95
2023/11/21 02:44:43;;;;;;;0.20;0.20;;;;;;;14.31;100.00;75355.81;6249812;22;20081;-95
2023/11/21 02:47:09;;;;;;;0.20;0.20;;;;;;;14.16;100.00;75344.00;6277207;22;20420;-95
2023/11/21 02:49:35;;;;;;;0.20;0.20;;;;;;;14.30;100.00;75357.41;6250327;22;20015;-96
2023/11/21 02:52:01;;;;;;;0.20;0.20;;;;;;;14.35;100.00;75363.38;6250352;22;20007;-95
2023/11/21 02:54:27;;;;;;;0.20;0.20;;;;;;;14.16;100.00;75341.81;6250389;22;20000;-94
2023/11/21 02:56:52;;;;;;;0.20;0.20;;;;;;;14.22;100.00;75342.25;6250008;22;20324;-93
2023/11/21 02:59:19;;;;;;;0.20;0.20;;;;;;;14.33;100.00;75361.59;6250096;22;20008;-96
2023/11/21 03:01:45;;;;;;;0.20;0.20;;;;;;;14.23;100.00;75344.06;6250335;22;20008;-95
2023/11/21 03:04:10;;;;;;;0.20;0.20;;;;;;;14.14;100.00;75338.84;6250036;22;20053;-94
2023/11/21 03:06:36;;;;;;;0.20;0.20;;;;;;;14.23;100.00;75349.03;6249991;22;20435;-94
2023/11/21 03:09:01;;;;;;;0.20;0.20;;;;;;;14.16;100.00;75339.03;6249573;22;20086;-96
2023/11/21 03:11:27;;;;;;;0.20;0.20;;;;;;;14.16;100.00;75339.03;6249742;22;19999;-95
2023/11/21 03:13:52;;;;;;;0.20;0.20;;;;;;;14.20;100.00;75348.78;6249870;22;20427;-93
2023/11/21 03:16:19;;;;;;;0.20;0.20;;;;;;;14.28;100.00;75355.59;6249268;22;20043;-93
2023/11/21 03:18:44;;;;;;;0.20;0.20;;;;;;;14.24;100.00;75347.44;6249678;22;20391;-95
2023/11/21 03:21:10;;;;;;;0.20;0.20;;;;;;;14.24;100.00;75350.81;6250571;22;20012;-94
2023/11/21 03:23:36;;;;;;;0.20;0.20;;;;;;;14.21;100.00;75352.19;6249852;22;20095;-95
2023/11/21 03:26:02;;;;;;;0.20;0.20;;;;;;;14.13;100.00;75332.69;6249973;22;20436;-94
2023/11/21 03:28:28;;;;;;;0.20;0.20;;;;;;;14.05;100.00;75323.09;6250092;22;20497;-95
2023/11/21 03:30:53;;;;;;;0.20;0.20;;;;;;;13.91;100.00;75311.91;6249948;22;19996;-94
2023/11/21 03:33:19;;;;;;;0.20;0.20;;;;;;;14.08;100.00;75331.66;6249660;22;20003;-94
2023/11/21 03:35:44;;;;;;;0.20;0.20;;;;;;;13.80;100.00;75295.94;6249586;22;20424;-95
2023/11/21 03:38:10;;;;;;;0.20;0.20;;;;;;;14.13;100.00;75338.25;6249870;22;20004;-94
2023/11/21 03:40:39;;;;;;;0.20;0.20;;;;;;;14.01;100.00;75326.66;6249475;22;20152;-95
2023/11/21 03:43:05;;;;;;;0.20;0.20;;;;;;;14.19;100.00;75338.66;6248816;22;20011;-95
2023/11/21 03:45:30;;;;;;;0.20;0.20;;;;;;;14.07;100.00;75330.47;6249783;22;20004;-95
2023/11/21 03:47:56;;;;;;;0.20;0.20;;;;;;;14.14;100.00;75336.66;6250778;22;20358;-95
2023/11/21 03:50:21;;;;;;;0.20;0.20;;;;;;;14.11;100.00;75333.06;6249448;22;20454;-94
2023/11/21 03:52:46;;;;;;;0.20;0.20;;;;;;;14.07;100.00;75330.47;6250080;22;20132;-94
2023/11/21 03:55:12;;;;;;;0.20;0.20;;;;;;;14.11;100.00;75333.06;6252500;22;20003;-94
2023/11/21 03:57:37;;;;;;;0.20;0.20;;;;;;;14.01;100.00;75323.25;6250060;22;20006;-95
2023/11/21 04:00:14;;;;;;;0.20;0.20;;;;;;;13.94;100.00;75315.47;6249561;22;20004;-94
2023/11/21 04:02:40;;;;;;;0.20;0.20;;;;;;;14.01;100.00;75323.88;6249394;22;20007;-95
2023/11/21 04:05:09;;;;;;;0.20;0.20;;;;;;;13.99;100.00;75318.69;6249564;22;20067;-94
2023/11/21 04:07:35;;;;;;;0.20;0.20;;;;;;;14.08;100.00;75329.47;6249558;22;20000;-94
2023/11/21 04:10:00;;;;;;;0.20;0.20;;;;;;;14.02;100.00;75319.50;6249391;22;20049;-94
2023/11/21 04:12:26;;;;;;;0.20;0.20;;;;;;;13.90;100.00;75307.91;6249429;22;20094;-95
2023/11/21 04:14:51;;;;;;;0.28;0.28;;;;;;;13.95;100.00;75319.44;6249245;22;20436;-95
2023/11/21 04:17:24;;;;;;;0.20;0.20;;;;;;;13.93;100.00;75314.28;6249326;22;20014;-94
2023/11/21 04:19:50;;;;;;;0.20;0.20;;;;;;;13.87;100.00;75304.31;6249568;22;20065;-95
2023/11/21 04:22:17;;;;;;;0.20;0.20;;;;;;;13.61;100.00;75277.16;6223673;22;20007;-95
2023/11/21 04:24:43;;;;;;;0.20;0.20;;;;;;;13.73;100.00;75284.78;6249399;22;20227;-95
2023/11/21 04:27:08;;;;;;;0.20;0.20;;;;;;;13.91;100.00;75311.91;6249449;22;20335;-95
2023/11/21 04:29:34;;;;;;;0.20;0.20;;;;;;;13.68;100.00;75284.94;6249492;22;20007;-95
2023/11/21 04:32:00;;;;;;;0.20;0.20;;;;;;;13.87;100.00;75307.09;6248570;22;20011;-94
2023/11/21 04:34:26;;;;;;;0.20;0.20;;;;;;;13.93;100.00;75308.72;6249069;22;20015;-96
2023/11/21 04:36:51;;;;;;;0.20;0.20;;;;;;;13.93;100.00;75313.69;6249113;22;20416;-95
2023/11/21 04:39:17;;;;;;;0.20;0.20;;;;;;;13.90;100.00;75305.13;6249371;22;20015;-95
2023/11/21 04:41:42;;;;;;;0.20;0.20;;;;;;;13.86;100.00;75306.50;6249469;22;20004;-94
2023/11/21 04:44:08;;;;;;;0.20;0.20;;;;;;;13.84;100.00;75303.50;6249202;22;20008;-95
2023/11/21 04:46:33;;;;;;;0.20;0.20;;;;;;;13.79;100.00;75297.50;6249758;22;20082;-94
2023/11/21 04:48:59;;;;;;;0.20;0.20;;;;;;;13.79;100.00;75300.88;6248984;22;20031;-93
2023/11/21 04:51:24;;;;;;;0.20;0.20;;;;;;;13.74;100.00;75291.53;6248824;22;20015;-94
2023/11/21 04:53:50;;;;;;;0.20;0.20;;;;;;;13.56;100.00;75271.19;6249403;22;20015;-95
2023/11/21 04:56:16;;;;;;;0.20;0.20;;;;;;;13.54;100.00;75274.34;6249686;22;20061;-95
2023/11/21 04:58:41;;;;;;;0.20;0.20;;;;;;;13.66;100.00;75279.19;6248899;22;20003;-95
2023/11/21 05:01:10;;;;;;;0.20;0.20;;;;;;;13.70;100.00;75289.53;6250372;22;20004;-94
2023/11/21 05:03:35;;;;;;;0.20;0.20;;;;;;;13.63;100.00;75278.94;6248876;22;20008;-94
2023/11/21 05:06:01;;;;;;;0.20;0.20;;;;;;;13.57;100.00;75275.16;6248961;22;20018;-95
2023/11/21 05:08:26;;;;;;;0.20;0.20;;;;;;;13.55;100.00;75269.97;6249583;22;20011;-95
2023/11/21 05:10:53;;;;;;;0.20;0.20;;;;;;;13.62;100.00;75280.53;6249931;22;20062;-95
2023/11/21 05:13:19;;;;;;;0.20;0.20;;;;;;;13.67;100.00;75280.97;6250826;22;20014;-95
2023/11/21 05:15:45;;;;;;;0.20;0.20;;;;;;;13.72;100.00;75289.13;6248394;22;20069;-94
2023/11/21 05:18:11;;;;;;;0.20;0.20;;;;;;;13.72;100.00;75286.34;6248980;22;20007;-95
2023/11/21 05:20:38;;;;;;;0.20;0.20;;;;;;;13.82;100.00;75296.16;6249340;22;20011;-94
2023/11/21 05:23:03;;;;;;;0.20;0.20;;;;;;;13.80;100.00;75299.31;6248854;22;20007;-95
2023/11/21 05:25:28;;;;;;;0.20;0.20;;;;;;;13.76;100.00;75300.09;6249179;22;20007;-94
2023/11/21 05:28:01;;;;;;;0.20;0.20;;;;;;;13.86;100.00;75305.91;6248930;22;20050;-94
2023/11/21 05:30:26;;;;;;;0.20;0.20;;;;;;;13.77;100.00;75300.69;6249095;22;20004;-94
2023/11/21 05:32:51;;;;;;;0.20;0.20;;;;;;;13.82;100.00;75295.56;6248989;22;20010;-94
2023/11/21 05:35:17;;;;;;;0.20;0.20;;;;;;;13.95;100.00;75313.88;6248465;22;20057;-94
2023/11/21 05:37:44;;;;;;;0.20;0.20;;;;;;;13.96;100.00;75314.50;6248511;22;20004;-94
2023/11/21 05:40:10;;;;;;;0.20;0.20;;;;;;;14.05;100.00;75325.28;6248836;22;20008;-94
2023/11/21 05:42:37;;;;;;;0.20;0.20;;;;;;;14.01;100.00;75318.31;6248991;22;20018;-94
2023/11/21 05:45:12;;;;;;;0.20;0.20;;;;;;;13.99;100.00;75315.91;6249608;22;20003;-93
2023/11/21 05:47:42;;;;;;;0.20;0.20;;;;;;;13.95;100.00;75316.06;6248835;22;20078;-95
2023/11/21 05:50:14;;;;;;;0.20;0.20;;;;;;;13.96;100.00;75315.09;6249369;22;20008;-94
2023/11/21 05:52:40;;;;;;;0.20;0.20;;;;;;;13.94;100.00;75314.88;6249302;22;20015;-94
2023/11/21 05:55:07;;;;;;;0.20;0.20;;;;;;;13.90;100.00;75310.69;6249136;22;20004;-95
2023/11/21 05:57:37;;;;;;;0.20;0.20;;;;;;;14.13;100.00;75337.63;6248679;22;20150;-94
2023/11/21 06:00:10;;;;;;;0.20;0.20;;;;;;;14.22;100.00;75348.44;6248219;22;20443;-96
2023/11/21 06:02:37;;;;;;;0.20;0.20;;;;;;;14.17;100.00;75339.66;6248639;22;20003;-93
2023/11/21 06:05:04;;;;;;;0.20;0.20;;;;;;;14.06;100.00;75323.69;6248897;22;20036;-95
2023/11/21 06:07:29;;;;;;;0.20;0.20;;;;;;;13.98;100.00;75314.72;6248331;22;20000;-95
2023/11/21 06:09:54;;;;;;;0.20;0.20;;;;;;;14.14;100.00;75336.66;6248777;22;20022;-94
2023/11/21 06:12:20;;;;;;;0.20;0.20;;;;;;;14.29;100.00;75356.81;6275207;22;20031;-95
2023/11/21 06:14:46;;;;;;;0.20;0.20;;;;;;;14.26;100.00;75353.19;6245709;23;20447;-95
2023/11/21 06:17:11;;;;;;;0.20;0.20;;;;;;;14.26;100.00;75350.41;6245475;23;20495;-95
2023/11/21 06:19:36;;;;;;;0.20;0.20;;;;;;;14.28;100.00;75355.00;6246072;23;20494;-95
2023/11/21 06:22:02;;;;;;;0.20;0.20;;;;;;;14.24;100.00;75348.03;6247101;22;20004;-95
2023/11/21 06:24:28;;;;;;;0.20;0.20;;;;;;;14.26;100.00;75352.59;6245687;23;20054;-94
2023/11/21 06:26:53;;;;;;;0.20;0.20;;;;;;;14.64;100.00;75392.56;6245414;23;20000;-96
2023/11/21 06:29:18;;;;;;;0.20;0.20;;;;;;;14.92;100.00;75425.53;6244752;23;20008;-95
2023/11/21 06:31:46;;;;;;;0.20;0.20;;;;;;;14.90;100.00;75428.09;6245110;23;20069;-95
2023/11/21 06:34:12;;;;;;;0.20;0.20;;;;;;;15.48;100.00;75496.41;6245850;23;20004;-95
2023/11/21 06:36:37;;;;;;;0.20;0.20;;;;;;;16.27;100.00;75583.19;6246493;23;20333;-95
2023/11/21 06:39:06;;;;;;;0.20;0.20;;;;;;;16.02;100.00;75557.19;6245449;23;20099;-94
2023/11/21 06:41:33;;;;;;;0.20;0.20;;;;;;;16.04;100.00;75551.22;6244733;23;20011;-96
2023/11/21 06:52:03;;;;;;;0.20;0.20;;;;;;;15.91;100.00;75541.81;6277089;22;20023;-93
2023/11/21 06:54:29;;;;;;;0.20;0.20;;;;;;;17.64;100.00;75753.56;6249753;22;20081;-94
2023/11/21 06:56:56;;;;;;;0.20;0.20;;;;;;;18.02;100.00;75790.22;6277037;22;20003;-92
2023/11/21 06:59:21;;;;;;;0.20;0.20;;;;;;;17.95;100.00;75786.81;6277093;22;20012;-92
2023/11/21 07:01:47;;;;;;;0.20;0.20;;;;;;;17.79;100.00;75768.22;6276476;22;20463;-93
2023/11/21 07:04:12;;;;;;;0.20;0.20;;;;;;;17.68;100.00;75749.38;6251390;22;20448;-93
2023/11/21 07:06:38;;;;;;;0.20;0.20;;;;;;;16.93;100.00;75663.97;6275903;22;20010;-94
2023/11/21 07:09:11;;;;;;;0.20;0.20;;;;;;;16.47;100.00;75607.19;6276549;22;20344;-93
2023/11/21 07:11:38;;;;;;;0.20;0.20;;;;;;;16.46;100.00;75612.16;6251598;22;20004;-93
2023/11/21 07:14:07;;;;;;;0.20;0.20;;;;;;;16.62;100.00;75625.19;6252638;22;20083;-94
2023/11/21 07:16:35;;;;;;;0.20;0.20;;;;;;;16.58;100.00;75622.56;6253381;22;20011;-94
2023/11/21 07:19:00;;;;;;;0.20;0.20;;;;;;;16.23;100.00;75582.38;6278082;22;20019;-93
2023/11/21 07:21:25;;;;;;;0.20;0.20;;;;;;;16.48;100.00;75619.53;6277731;22;20443;-93
2023/11/21 07:23:51;;;;;;;0.20;0.20;;;;;;;16.60;100.00;75628.34;6250901;22;20008;-93
2023/11/21 07:26:17;;;;;;;0.20;0.20;;;;;;;16.54;100.00;75615.56;6250193;22;19996;-94
2023/11/21 07:28:42;;;;;;;0.20;0.20;;;;;;;16.43;100.00;75602.38;6250238;22;20086;-94
2023/11/21 07:31:08;;;;;;;0.20;0.20;;;;;;;16.24;100.00;75583.59;6249707;22;20371;-94
2023/11/21 07:33:33;;;;;;;0.30;0.30;;;;;;;16.18;100.00;75573.59;6250022;22;19999;-94
2023/11/21 07:35:58;;;;;;;0.20;0.20;;;;;;;16.00;100.00;75557.00;6250719;22;20007;-94
2023/11/21 07:38:24;;;;;;;0.20;0.20;;;;;;;16.18;100.00;75578.56;6251068;22;20082;-94
2023/11/21 07:40:49;;;;;;;0.20;0.20;;;;;;;16.24;100.00;75586.38;6276641;22;20456;-94
2023/11/21 07:43:15;;;;;;;0.20;0.20;;;;;;;16.35;100.00;75598.34;6250057;22;20032;-92
2023/11/21 07:45:41;;;;;;;0.20;0.20;;;;;;;16.23;100.00;75579.59;6250025;22;20000;-93
2023/11/21 07:48:09;;;;;;;0.20;0.20;;;;;;;16.34;100.00;75594.38;6250483;22;20003;-93
2023/11/21 07:50:35;;;;;;;0.20;0.20;;;;;;;16.44;100.00;75609.16;6279793;22;20070;-93
2023/11/21 07:56:04;;;;;;;0.20;0.20;;;;;;;16.51;100.00;75614.75;6285150;22;20046;-92
2023/11/21 07:58:30;;;;;;;0.20;0.20;;;;;;;16.60;100.00;75622.75;6249967;22;20378;-93
2023/11/21 08:00:56;;;;;;;0.20;0.20;;;;;;;16.60;100.00;75622.75;6249441;22;20078;-93
2023/11/21 08:03:21;;;;;;;0.20;0.20;;;;;;;16.54;100.00;75621.16;6253878;22;20014;-92
2023/11/21 08:05:47;;;;;;;0.20;0.20;;;;;;;16.47;100.00;75612.75;6261852;22;20031;-92
2023/11/21 08:08:12;;;;;;;0.20;0.20;;;;;;;16.47;100.00;75610.56;6263168;22;20035;-93
2023/11/21 08:10:38;;;;;;;0.20;0.20;;;;;;;16.41;100.00;75605.56;6254367;22;20325;-94
2023/11/21 08:13:04;;;;;;;0.20;0.20;;;;;;;16.42;100.00;75606.75;6250271;22;20011;-93
2023/11/21 08:29:46;;;;;;;0.20;0.20;;;;;;;16.67;100.00;75633.34;6276896;22;20024;-93
2023/11/21 08:32:12;;;;;;;0.20;0.20;;;;;;;16.84;100.00;75644.81;6248633;22;20010;-94
2023/11/21 08:34:39;;;;;;;0.20;0.20;;;;;;;17.26;100.00;75703.56;6249473;22;20023;-94
2023/11/21 08:37:05;;;;;;;0.20;0.20;;;;;;;17.05;100.00;75675.59;6274380;22;20018;-94
2023/11/21 08:39:31;;;;;;;0.20;0.20;;;;;;;16.93;100.00;75667.34;6274691;22;20012;-94
2023/11/21 08:41:57;;;;;;;0.20;0.20;;;;;;;17.08;100.00;75678.56;6249153;22;20003;-95
2023/11/21 08:44:23;;;;;;;0.20;0.20;;;;;;;17.55;100.00;75734.38;6249732;22;20497;-94
2023/11/21 08:46:49;;;;;;;0.20;0.20;;;;;;;17.95;100.00;75778.41;6249322;22;20022;-94
2023/11/21 08:49:15;;;;;;;0.20;0.20;;;;;;;17.65;100.00;75751.97;6274995;22;20065;-93
2023/11/21 08:51:41;;;;;;;0.20;0.20;;;;;;;18.19;100.00;75809.44;6248965;22;20371;-93
2023/11/21 08:54:08;;;;;;;0.20;0.20;;;;;;;18.13;100.00;75796.63;6249116;22;20000;-94
2023/11/21 08:56:36;;;;;;;0.20;0.20;;;;;;;18.23;100.00;75814.84;6249207;22;20004;-93
2023/11/21 08:59:02;;;;;;;0.20;0.20;;;;;;;18.24;100.00;75821.63;6274240;22;20086;-93
2023/11/21 09:01:32;;;;;;;0.20;0.20;;;;;;;18.14;100.00;75804.03;6276131;22;20007;-92
2023/11/21 09:03:58;;;;;;;0.20;0.20;;;;;;;18.86;100.00;75888.13;6274667;22;20011;-94
2023/11/21 09:06:24;;;;;;;0.20;0.20;;;;;;;19.37;100.00;75943.78;6248881;22;20012;-93
2023/11/21 09:08:49;;;;;;;0.20;0.20;;;;;;;19.35;96.94;75944.19;6277468;22;19999;-93
2023/11/21 09:11:15;;;;;;;0.20;0.20;;;;;;;19.21;97.21;75930.16;6252509;22;20381;-92
2023/11/21 09:13:40;;;;;;;0.20;0.20;;;;;;;18.84;99.19;75886.31;6276503;22;20030;-92
2023/11/21 09:16:06;;;;;;;0.20;0.20;;;;;;;18.97;99.63;75904.16;6248674;22;20095;-92
2023/11/21 09:18:32;;;;;;;0.20;0.20;;;;;;;18.72;100.00;75871.91;6273326;22;20012;-92
2023/11/21 09:20:57;;;;;;;0.20;0.20;;;;;;;18.52;100.00;75849.06;6239922;22;20016;-91
2023/11/21 09:23:24;;;;;;;0.20;0.20;;;;;;;18.38;100.00;75834.47;6218653;23;20031;-92
2023/11/21 09:25:50;;;;;;;0.20;0.20;;;;;;;18.81;100.00;75882.72;6246057;23;20340;-91
2023/11/21 09:28:17;;;;;;;0.20;0.20;;;;;;;18.78;100.00;75879.09;6243649;23;20024;-92
2023/11/21 09:30:43;;;;;;;0.20;0.20;;;;;;;19.03;98.07;75908.53;6218170;23;20004;-91
2023/11/21 09:33:10;;;;;;;0.20;0.20;;;;;;;18.93;97.98;75896.53;6220190;23;20004;-91
2023/11/21 09:35:38;;;;;;;0.20;0.20;;;;;;;18.83;98.41;75885.72;6245363;23;20059;-92
2023/11/21 09:38:09;;;;;;;0.20;0.20;;;;;;;19.25;95.29;75934.97;6218138;23;20008;-91
2023/11/21 09:40:35;;;;;;;0.20;0.20;;;;;;;19.36;95.10;75944.78;6217807;23;20439;-93
2023/11/21 09:43:15;;;;;;;0.20;0.20;;;;;;;19.92;91.75;76016.53;6246603;23;20020;-91
2023/11/21 09:45:45;;;;;;;0.20;0.20;;;;;;;19.68;92.75;75985.47;6197555;23;20008;-91
2023/11/21 09:48:11;;;;;;;0.20;0.20;;;;;;;19.92;92.18;76019.34;6245401;23;20028;-91
2023/11/21 09:50:41;;;;;;;0.20;0.20;;;;;;;19.91;90.29;76011.91;6249305;23;20008;-91
2023/11/21 09:53:21;;;;;;;0.20;0.20;;;;;;;20.23;89.73;76050.38;6226866;23;20432;-92
2023/11/21 09:55:48;;;;;;;0.20;0.20;;;;;;;20.09;89.18;76033.56;6256906;23;20004;-91
2023/11/21 09:58:14;;;;;;;0.20;0.20;;;;;;;19.81;91.26;75995.47;6228698;23;20341;-91
2023/11/21 10:00:44;;;;;;;0.20;0.20;;;;;;;19.72;91.97;75990.28;6224645;23;20039;-91
2023/11/21 10:03:11;;;;;;;0.20;0.20;;;;;;;19.74;92.11;75992.69;6223815;23;20348;-92
2023/11/21 10:05:37;;;;;;;0.20;0.20;;;;;;;19.70;92.69;75984.47;6220358;23;20031;-91
2023/11/21 10:08:10;;;;;;;0.20;0.20;;;;;;;19.93;91.51;76011.50;6246607;23;20027;-91
2023/11/21 10:10:37;;;;;;;0.20;0.20;;;;;;;19.70;92.26;75992.88;6221122;23;20082;-91
2023/11/21 10:13:07;;;;;;;0.20;0.20;;;;;;;19.72;92.67;75989.69;6222348;23;20006;-92
2023/11/21 10:15:34;;;;;;;0.20;0.20;;;;;;;19.75;92.21;75999.47;6221827;23;20004;-91
2023/11/21 10:18:06;;;;;;;0.20;0.20;;;;;;;19.38;92.50;75947.78;6220239;23;20036;-91
2023/11/21 10:20:33;;;;;;;0.20;0.20;;;;;;;20.00;90.97;76022.72;6220647;22;20436;-91
2023/11/21 10:23:07;;;;;;;0.20;0.20;;;;;;;19.98;88.95;76018.13;6220276;23;20523;-91
2023/11/21 10:25:32;;;;;;;0.10;0.10;;;;;;;19.82;87.77;76002.31;6246408;23;20013;-92
2023/11/21 10:28:04;;;;;;;0.20;0.20;;;;;;;19.82;87.62;76002.31;6219791;23;20013;-91
2023/11/21 10:30:36;;;;;;;0.20;0.20;;;;;;;20.48;84.90;76076.44;6219668;23;20103;-91
2023/11/21 10:33:02;;;;;;;0.20;0.20;;;;;;;20.65;83.33;76099.69;6219624;23;20004;-91
2023/11/21 10:35:50;;;;;;;0.20;0.20;;;;;;;21.07;81.11;76143.38;6219755;23;20011;-91
2023/11/21 10:38:21;;;;;;;0.20;0.20;;;;;;;21.40;78.25;76188.72;6246423;23;20037;-91
2023/11/21 10:40:47;;;;;;;0.20;0.20;;;;;;;21.02;79.11;76143.00;6220337;23;20012;-90
2023/11/21 10:43:14;;;;;;;0.20;0.20;;;;;;;20.91;80.61;76127.56;6219986;23;20335;-92
2023/11/21 10:45:42;;;;;;;0.20;0.20;;;;;;;20.82;82.03;76120.13;6220213;23;20127;-91
2023/11/21 10:48:17;;;;;;;0.20;0.20;;;;;;;20.72;82.74;76108.13;6219109;23;20000;-91
2023/11/21 10:50:45;;;;;;;0.20;0.20;;;;;;;20.57;83.38;76090.09;6219158;23;20008;-91
2023/11/21 10:53:14;;;;;;;0.20;0.20;;;;;;;20.59;82.28;76092.47;6246216;23;20006;-90
2023/11/21 10:55:39;;;;;;;0.20;0.20;;;;;;;20.76;82.76;76112.91;6218998;23;20083;-92
2023/11/21 10:58:05;;;;;;;0.20;0.20;;;;;;;20.16;89.05;76041.97;6219582;23;20341;-91
2023/11/21 11:00:33;;;;;;;0.20;0.20;;;;;;;20.06;91.51;76030.53;6218838;23;20004;-92
2023/11/21 11:03:00;;;;;;;0.20;0.20;;;;;;;20.15;92.08;76041.38;6246107;23;20602;-91
2023/11/21 11:05:28;;;;;;;0.20;0.20;;;;;;;19.67;95.17;75983.66;6244235;23;20020;-91
2023/11/21 11:08:05;;;;;;;0.20;0.20;;;;;;;19.73;96.30;75990.88;6219185;23;20004;-93
2023/11/21 11:10:31;;;;;;;0.20;0.20;;;;;;;19.51;98.05;75962.22;6245998;23;20034;-91
2023/11/21 11:12:58;;;;;;;0.20;0.20;;;;;;;19.70;96.21;75984.47;6245776;23;20027;-93
2023/11/21 11:15:28;;;;;;;0.20;0.20;;;;;;;19.77;96.68;75996.28;6219050;23;20079;-92
2023/11/21 11:17:57;;;;;;;0.20;0.20;;;;;;;19.66;95.94;75979.66;6218815;23;20005;-92
2023/11/21 11:20:26;;;;;;;0.20;0.20;;;;;;;19.82;94.94;76001.69;6218711;22;20015;-92
2023/11/21 11:22:54;;;;;;;0.20;0.20;;;;;;;19.84;92.56;76004.69;6219213;23;20457;-91
2023/11/21 11:25:44;;;;;;;0.20;0.20;;;;;;;19.90;93.42;76014.13;6245674;23;20011;-92
2023/11/21 11:28:18;;;;;;;0.20;0.20;;;;;;;19.99;92.84;76015.91;6244943;23;20107;-93
2023/11/21 11:31:13;;;;;;;0.20;0.20;;;;;;;20.02;92.37;76022.91;6245170;23;20015;-91
2023/11/21 11:33:38;;;;;;;0.20;0.20;;;;;;;20.08;91.31;76032.34;6208493;23;20004;-92
2023/11/21 11:36:11;;;;;;;0.20;0.20;;;;;;;20.39;89.71;76066.19;6244464;23;20008;-91
2023/11/21 11:38:36;;;;;;;0.20;0.20;;;;;;;19.97;89.62;76013.50;6245631;23;20000;-92
2023/11/21 11:41:06;;;;;;;0.20;0.20;;;;;;;20.56;87.12;76083.25;6246217;23;20008;-92
2023/11/21 11:43:33;;;;;;;0.20;0.20;;;;;;;20.20;85.20;76046.19;6245682;23;20003;-92
2023/11/21 11:46:03;;;;;;;0.20;0.20;;;;;;;20.57;83.57;76084.47;6218793;23;20016;-92
2023/11/21 11:48:29;;;;;;;0.20;0.20;;;;;;;20.36;88.42;76066.00;6218773;23;20004;-92
2023/11/21 11:51:16;;;;;;;0.20;0.20;;;;;;;20.23;91.29;76047.56;6245174;23;20004;-92
2023/11/21 11:53:46;;;;;;;0.20;0.20;;;;;;;20.19;90.83;76042.78;6218831;23;20000;-91
2023/11/21 11:56:30;;;;;;;0.20;0.20;;;;;;;20.22;88.96;76043.56;6248274;23;20004;-92
2023/11/21 11:58:59;;;;;;;;;;;;;;;20.23;89.73;76047.56;6248724;23;20014;-92
2023/11/21 12:01:26;;;;;;;0.20;0.20;;;;;;;19.93;92.80;76014.31;6217976;23;19962;-92
2023/11/21 12:04:20;;;;;;;0.20;0.20;;;;;;;19.95;93.13;76016.72;6218665;23;20144;-92
2023/11/21 12:06:46;;;;;;;;;;;;;;;20.02;92.07;76022.31;6245020;23;20031;-92